Time;durP1;ratioP1;P1;durP2;ratioP2;P2;SDS_P1;SDS_P2;PMS_P1;PMS_P2;Temp;Humidity;BMP_temperature;BMP_pressure;BME280_temperature;BME280_humidity;BME280_pressure;Samples;Min_cycle;Max_cycle;Signal;HPM_P1;HPM_P2
2022/05/06 00:01:34;;;;;;;71.80;36.37;;;11.80;99.90;;;;;;5034249;28;20471;-77
2022/05/06 00:04:00;;;;;;;76.13;39.60;;;11.80;99.90;;;;;;5068030;28;20511;-76
2022/05/06 00:06:29;;;;;;;77.50;40.73;;;11.80;99.90;;;;;;5050180;28;20450;-76
2022/05/06 00:08:55;;;;;;;78.47;37.70;;;11.80;99.90;;;;;;5068345;28;20516;-77
2022/05/06 00:11:22;;;;;;;64.77;36.30;;;11.90;99.90;;;;;;5049874;28;20508;-77
2022/05/06 00:13:48;;;;;;;55.93;34.13;;;11.80;99.90;;;;;;5068113;28;20454;-77
2022/05/06 00:16:15;;;;;;;70.17;37.73;;;11.70;99.90;;;;;;5049925;28;20451;-76
2022/05/06 00:18:41;;;;;;;55.73;34.03;;;11.70;99.90;;;;;;5050620;28;20656;-77
2022/05/06 00:21:06;;;;;;;69.47;38.30;;;11.70;99.90;;;;;;5049965;28;20473;-77
2022/05/06 00:23:32;;;;;;;65.77;36.70;;;11.60;99.90;;;;;;5033732;28;20662;-76
2022/05/06 00:25:59;;;;;;;68.77;37.90;;;11.50;99.90;;;;;;5068168;28;20286;-77
2022/05/06 00:28:25;;;;;;;64.00;37.67;;;11.50;99.90;;;;;;5017468;28;20557;-76
2022/05/06 00:30:51;;;;;;;66.90;37.57;;;11.40;99.90;;;;;;5050681;28;20454;-76
2022/05/06 00:33:17;;;;;;;72.97;39.07;;;11.40;99.90;;;;;;5034082;28;20438;-77
2022/05/06 00:35:42;;;;;;;60.03;35.87;;;11.40;99.90;;;;;;5050741;28;20301;-76
2022/05/06 00:38:08;;;;;;;62.80;36.47;;;11.40;99.90;;;;;;5034231;28;20184;-76
2022/05/06 00:40:34;;;;;;;59.23;35.40;;;11.40;99.90;;;;;;5050567;28;20189;-77
2022/05/06 00:43:00;;;;;;;62.73;36.23;;;11.40;99.90;;;;;;5050461;28;20292;-76
2022/05/06 00:45:34;;;;;;;66.37;35.93;;;11.40;99.90;;;;;;5034694;28;20687;-77
2022/05/06 00:48:01;;;;;;;69.80;34.03;;;11.50;99.90;;;;;;5050242;28;20215;-76
2022/05/06 00:50:27;;;;;;;65.93;37.43;;;11.50;99.90;;;;;;5050015;28;20450;-75
2022/05/06 00:52:54;;;;;;;62.23;34.70;;;11.60;99.90;;;;;;5033313;28;20587;-76
2022/05/06 00:55:22;;;;;;;61.23;34.07;;;11.50;99.90;;;;;;5067707;28;20454;-76
2022/05/06 00:57:47;;;;;;;65.87;35.93;;;11.50;99.90;;;;;;5068204;28;20429;-77
2022/05/06 01:00:20;;;;;;;70.27;37.33;;;11.50;99.90;;;;;;5049958;28;20477;-76
2022/05/06 01:02:46;;;;;;;54.13;34.07;;;11.80;99.90;;;;;;5034043;28;20221;-76
2022/05/06 01:05:13;;;;;;;53.57;32.80;;;11.50;99.90;;;;;;5033172;28;20444;-77
2022/05/06 01:07:39;;;;;;;62.23;33.40;;;11.50;99.90;;;;;;5049887;28;20416;-76
2022/05/06 01:10:06;;;;;;;68.53;37.07;;;11.60;99.90;;;;;;5051931;28;20522;-76
2022/05/06 01:12:32;;;;;;;48.33;31.70;;;11.40;99.90;;;;;;5070675;28;20474;-75
2022/05/06 01:14:58;;;;;;;54.93;31.50;;;11.40;99.90;;;;;;5036697;28;20452;-76
2022/05/06 01:17:23;;;;;;;65.07;35.70;;;11.40;99.90;;;;;;5036609;28;20522;-77
2022/05/06 01:19:49;;;;;;;59.53;34.07;;;11.40;99.90;;;;;;5071302;28;20673;-77
2022/05/06 01:22:16;;;;;;;51.73;32.47;;;11.30;99.90;;;;;;5052967;28;20206;-76
2022/05/06 01:24:41;;;;;;;60.07;34.93;;;11.30;99.90;;;;;;5052817;28;20210;-77
2022/05/06 01:27:11;;;;;;;59.80;34.57;;;11.30;99.90;;;;;;5052941;28;21018;-77
2022/05/06 01:29:38;;;;;;;57.47;33.40;;;11.40;99.90;;;;;;5052989;28;20198;-77
2022/05/06 01:32:05;;;;;;;61.23;33.47;;;11.50;99.90;;;;;;5020098;28;20432;-76
2022/05/06 01:34:33;;;;;;;67.53;33.37;;;11.60;99.90;;;;;;5036286;28;20438;-77
2022/05/06 01:37:03;;;;;;;65.30;34.83;;;11.50;99.90;;;;;;5052632;28;20426;-77
2022/05/06 01:39:33;;;;;;;70.80;34.20;;;11.60;99.90;;;;;;5052701;28;20522;-77
2022/05/06 01:42:06;;;;;;;64.73;33.70;;;11.60;99.90;;;;;;5070921;28;20584;-77
2022/05/06 01:44:37;;;;;;;56.30;33.60;;;11.60;99.90;;;;;;5053490;28;20826;-77
2022/05/06 01:47:07;;;;;;;54.50;33.90;;;11.60;99.90;;;;;;5035997;28;20420;-77
2022/05/06 01:49:33;;;;;;;56.10;34.10;;;11.60;99.90;;;;;;5036337;28;20449;-77
2022/05/06 01:52:00;;;;;;;60.63;35.70;;;11.60;99.90;;;;;;5052577;28;20430;-77
2022/05/06 01:54:26;;;;;;;53.03;33.77;;;11.60;99.90;;;;;;5052704;28;20447;-77
2022/05/06 01:56:52;;;;;;;57.97;33.70;;;11.70;99.90;;;;;;5019676;28;20551;-77
2022/05/06 01:59:18;;;;;;;60.40;35.67;;;11.70;99.90;;;;;;5053082;28;20193;-76
2022/05/06 02:01:44;;;;;;;63.50;33.33;;;11.70;99.90;;;;;;5070399;28;20209;-78
2022/05/06 02:06:54;;;;;;;70.60;35.33;;;11.70;99.90;;;;;;5055193;28;20231;-77
2022/05/06 02:09:19;;;;;;;55.03;32.03;;;11.70;99.90;;;;;;5070316;28;20837;-77
2022/05/06 02:11:45;;;;;;;50.23;32.03;;;11.70;99.90;;;;;;5035594;28;20726;-78
2022/05/06 02:14:11;;;;;;;52.10;31.10;;;11.70;99.90;;;;;;5019148;28;20231;-77
2022/05/06 02:16:37;;;;;;;61.27;33.80;;;11.70;99.90;;;;;;5051979;28;20484;-77
2022/05/06 02:19:06;;;;;;;58.60;35.70;;;11.60;99.90;;;;;;5052080;28;20243;-78
2022/05/06 02:21:32;;;;;;;59.87;34.30;;;11.70;99.90;;;;;;5070005;28;20588;-77
2022/05/06 02:23:58;;;;;;;57.17;33.23;;;11.70;99.90;;;;;;5051759;28;20435;-78
2022/05/06 02:26:23;;;;;;;61.37;34.13;;;11.60;99.90;;;;;;5035560;28;20518;-77
2022/05/06 02:28:49;;;;;;;67.53;34.57;;;11.60;99.90;;;;;;5035397;28;20178;-77
2022/05/06 02:33:58;;;;;;;55.90;31.10;;;11.60;99.90;;;;;;5070212;28;20260;-78
2022/05/06 02:36:24;;;;;;;57.33;33.93;;;11.60;99.90;;;;;;5069335;28;20456;-77
2022/05/06 02:38:50;;;;;;;61.53;33.00;;;11.70;99.90;;;;;;5035130;28;20188;-77
2022/05/06 02:41:16;;;;;;;70.67;33.60;;;11.70;99.90;;;;;;5069579;28;20176;-77
2022/05/06 02:43:42;;;;;;;53.20;31.50;;;11.70;99.90;;;;;;5051331;28;20183;-78
2022/05/06 02:46:08;;;;;;;58.50;34.00;;;11.70;99.90;;;;;;5035034;28;20291;-78
2022/05/06 02:48:34;;;;;;;57.23;32.40;;;11.70;99.90;;;;;;5069408;28;20999;-78
2022/05/06 02:51:00;;;;;;;57.90;33.37;;;11.70;99.90;;;;;;5034728;28;20442;-78
2022/05/06 02:53:26;;;;;;;49.10;31.00;;;11.70;99.90;;;;;;5034689;28;20193;-78
2022/05/06 02:55:51;;;;;;;57.10;32.27;;;11.70;99.90;;;;;;5051883;28;20205;-78
2022/05/06 02:58:17;;;;;;;52.37;31.80;;;11.80;99.90;;;;;;5035879;28;20417;-77
2022/05/06 03:00:43;;;;;;;47.67;28.80;;;11.80;99.90;;;;;;5052016;28;20242;-77
2022/05/06 03:03:08;;;;;;;55.40;31.97;;;11.80;99.90;;;;;;5051125;28;20220;-77
2022/05/06 03:05:34;;;;;;;61.77;33.60;;;11.80;99.90;;;;;;5051186;28;20210;-77
2022/05/06 03:08:00;;;;;;;56.27;32.57;;;11.70;99.90;;;;;;5050886;28;20645;-76
2022/05/06 03:10:25;;;;;;;62.73;34.30;;;11.70;99.90;;;;;;5051113;28;20177;-77
2022/05/06 03:12:55;;;;;;;63.17;35.10;;;11.70;99.90;;;;;;5051009;28;20224;-77
2022/05/06 03:15:21;;;;;;;58.73;30.57;;;11.70;99.90;;;;;;5035097;28;20215;-77
2022/05/06 03:17:47;;;;;;;56.77;31.80;;;11.60;99.90;;;;;;5050790;28;21070;-77
2022/05/06 03:20:13;;;;;;;56.63;31.43;;;11.60;99.90;;;;;;5050903;28;20393;-77
2022/05/06 03:22:42;;;;;;;66.00;34.60;;;11.60;99.90;;;;;;5050563;28;20504;-76
2022/05/06 03:25:10;;;;;;;66.83;35.13;;;11.60;99.90;;;;;;5050666;28;20784;-77
2022/05/06 03:30:20;;;;;;;67.67;34.97;;;11.60;99.90;;;;;;5053638;28;20509;-78
2022/05/06 03:32:47;;;;;;;69.07;37.07;;;11.60;99.90;;;;;;5033675;28;20518;-77
2022/05/06 03:35:12;;;;;;;65.37;35.43;;;11.60;99.90;;;;;;5050632;28;20686;-77
2022/05/06 03:37:38;;;;;;;70.87;36.50;;;11.60;99.90;;;;;;5068402;28;20871;-78
2022/05/06 03:40:05;;;;;;;61.07;36.37;;;11.60;99.90;;;;;;5050439;28;20785;-77
2022/05/06 03:42:31;;;;;;;71.17;36.87;;;11.60;99.90;;;;;;5050516;28;20209;-78
2022/05/06 03:44:58;;;;;;;57.60;34.57;;;11.60;99.90;;;;;;5050269;28;20447;-77
2022/05/06 03:47:23;;;;;;;60.37;35.50;;;11.60;99.90;;;;;;5068759;28;20450;-78
2022/05/06 03:51:20;;;;;;;73.37;36.93;;;11.60;99.90;;;;;;5048717;28;20958;-78
2022/05/06 03:52:35;;;;;;;62.30;36.03;;;11.60;99.90;;;;;;5066708;28;20194;-78
2022/05/06 03:55:01;;;;;;;59.37;35.90;;;11.60;99.90;;;;;;5066841;28;20437;-78
2022/05/06 03:57:27;;;;;;;68.00;36.90;;;11.70;99.90;;;;;;5048407;28;20220;-78
2022/05/06 03:59:54;;;;;;;68.10;36.80;;;11.60;99.90;;;;;;5066988;28;20531;-78
2022/05/06 04:02:20;;;;;;;54.67;31.77;;;11.60;99.90;;;;;;5048750;28;20308;-77
2022/05/06 04:04:46;;;;;;;63.17;34.80;;;11.60;99.90;;;;;;5067061;28;20806;-77
2022/05/06 04:07:13;;;;;;;68.07;36.87;;;11.60;99.90;;;;;;5067173;28;20188;-78
2022/05/06 04:09:39;;;;;;;70.47;36.93;;;11.60;99.90;;;;;;5048677;28;20427;-78
2022/05/06 04:12:05;;;;;;;61.83;35.03;;;11.60;99.90;;;;;;5032153;28;20968;-78
2022/05/06 04:14:30;;;;;;;60.03;35.10;;;11.60;99.90;;;;;;5032853;28;20192;-77
2022/05/06 04:16:57;;;;;;;62.70;35.40;;;11.60;99.90;;;;;;5049684;28;20473;-78
2022/05/06 04:19:23;;;;;;;56.90;34.40;;;11.60;99.90;;;;;;5032826;28;20668;-78
2022/05/06 04:24:34;;;;;;;52.13;32.97;;;11.60;99.90;;;;;;5052738;28;20265;-77
2022/05/06 04:27:00;;;;;;;59.97;35.03;;;11.60;99.90;;;;;;5033204;28;20436;-78
2022/05/06 04:29:25;;;;;;;61.90;36.07;;;11.70;99.90;;;;;;5033230;28;21004;-77
2022/05/06 04:31:51;;;;;;;60.80;33.00;;;11.70;99.90;;;;;;5049239;28;20279;-78
2022/05/06 04:34:16;;;;;;;62.50;36.87;;;11.70;99.90;;;;;;5049387;28;20188;-77
2022/05/06 04:36:42;;;;;;;70.77;35.93;;;11.60;99.90;;;;;;5032482;28;20705;-77
2022/05/06 04:39:11;;;;;;;67.50;37.07;;;11.60;99.90;;;;;;5048978;28;20208;-78
2022/05/06 04:41:36;;;;;;;69.63;36.17;;;11.80;99.90;;;;;;5067113;28;20197;-78
2022/05/06 04:44:02;;;;;;;55.60;34.60;;;11.70;99.90;;;;;;5050034;28;20430;-78
2022/05/06 04:46:28;;;;;;;66.43;38.03;;;11.70;99.90;;;;;;5052715;28;20207;-78
2022/05/06 04:48:53;;;;;;;67.47;35.50;;;11.60;99.90;;;;;;5036190;28;20384;-78
2022/05/06 04:51:19;;;;;;;63.03;33.53;;;11.60;99.90;;;;;;5052583;28;20239;-77
2022/05/06 04:53:44;;;;;;;55.00;34.13;;;11.60;99.90;;;;;;5019487;28;20723;-78
2022/05/06 04:56:10;;;;;;;59.93;36.60;;;11.70;99.90;;;;;;5052735;28;20200;-79
2022/05/06 04:58:36;;;;;;;62.33;36.20;;;11.70;99.90;;;;;;5019808;28;20703;-78
2022/05/06 05:01:02;;;;;;;56.37;34.57;;;11.70;99.90;;;;;;5036000;28;20544;-77
2022/05/06 05:03:28;;;;;;;55.67;33.50;;;11.70;99.90;;;;;;5070868;28;20204;-76
2022/05/06 05:05:54;;;;;;;59.23;34.43;;;11.80;99.90;;;;;;5019577;28;20272;-76
2022/05/06 05:08:20;;;;;;;47.60;30.13;;;11.70;99.90;;;;;;5052660;28;20988;-76
2022/05/06 05:10:45;;;;;;;63.00;33.20;;;11.80;99.90;;;;;;5070909;28;20205;-76
2022/05/06 05:13:11;;;;;;;58.00;33.33;;;11.80;99.90;;;;;;5070616;28;20188;-76
2022/05/06 05:15:37;;;;;;;53.13;31.87;;;11.80;99.90;;;;;;5052116;28;20207;-78
2022/05/06 05:18:03;;;;;;;53.23;34.37;;;11.80;99.90;;;;;;5035621;28;20677;-76
2022/05/06 05:20:29;;;;;;;64.63;33.77;;;11.80;99.90;;;;;;5051885;28;20197;-76
2022/05/06 05:22:55;;;;;;;54.00;33.07;;;11.80;99.90;;;;;;5052155;28;20477;-76
2022/05/06 05:25:21;;;;;;;53.40;32.37;;;11.80;99.90;;;;;;5069635;28;20294;-77
2022/05/06 05:27:46;;;;;;;52.90;31.30;;;11.80;99.90;;;;;;5035134;28;20989;-77
2022/05/06 05:30:12;;;;;;;51.17;32.00;;;11.90;99.90;;;;;;5034850;28;20738;-77
2022/05/06 05:32:39;;;;;;;60.40;32.03;;;12.00;99.90;;;;;;5069652;28;20223;-77
2022/05/06 05:35:05;;;;;;;42.80;30.37;;;12.00;99.90;;;;;;5069629;28;20241;-76
2022/05/06 05:37:31;;;;;;;53.40;34.17;;;12.00;99.90;;;;;;5034897;28;20519;-76
2022/05/06 05:39:57;;;;;;;53.73;32.67;;;12.00;99.90;;;;;;5050999;28;21038;-77
2022/05/06 05:42:24;;;;;;;52.57;31.23;;;12.10;99.90;;;;;;5034647;28;20786;-77
2022/05/06 05:50:19;;;;;;;50.90;29.57;;;12.10;99.90;;;;;;5069440;28;20468;-77
2022/05/06 05:52:45;;;;;;;62.00;30.83;;;12.10;99.90;;;;;;5050979;28;20908;-77
2022/05/06 05:55:11;;;;;;;50.30;31.43;;;12.10;99.90;;;;;;5050621;28;20503;-77
2022/05/06 05:57:38;;;;;;;44.10;29.53;;;12.10;99.90;;;;;;5018082;28;20435;-76
2022/05/06 06:00:05;;;;;;;51.70;30.80;;;12.10;99.90;;;;;;5051197;28;20547;-77
2022/05/06 06:02:31;;;;;;;49.53;28.60;;;12.10;99.90;;;;;;5050523;28;20505;-76
2022/05/06 06:04:57;;;;;;;54.93;30.70;;;12.10;99.90;;;;;;5050294;28;20478;-77
2022/05/06 06:07:24;;;;;;;50.87;28.90;;;12.10;99.90;;;;;;5051217;28;20185;-78
2022/05/06 06:09:50;;;;;;;50.63;32.60;;;12.10;99.90;;;;;;5051003;28;20431;-76
2022/05/06 06:12:15;;;;;;;45.20;28.40;;;12.20;99.90;;;;;;5050790;28;20423;-78
2022/05/06 06:14:41;;;;;;;46.77;29.60;;;12.10;99.90;;;;;;5050999;28;21224;-77
2022/05/06 06:17:08;;;;;;;46.13;29.00;;;12.10;99.90;;;;;;5034480;28;20642;-76
2022/05/06 06:19:35;;;;;;;41.43;26.10;;;12.10;99.90;;;;;;5034786;28;20489;-77
2022/05/06 06:22:01;;;;;;;46.20;29.33;;;12.20;99.90;;;;;;5034288;28;20460;-77
2022/05/06 06:24:27;;;;;;;59.77;32.03;;;12.10;99.90;;;;;;5068445;28;20466;-78
2022/05/06 06:26:53;;;;;;;48.13;28.37;;;12.10;99.90;;;;;;5034618;28;20185;-77
2022/05/06 06:29:18;;;;;;;45.13;29.47;;;12.10;99.90;;;;;;5034444;28;20428;-77
2022/05/06 06:31:44;;;;;;;45.60;29.53;;;12.10;99.90;;;;;;5069345;28;20196;-77
2022/05/06 06:34:10;;;;;;;43.40;28.63;;;12.20;99.90;;;;;;5034810;28;20798;-77
2022/05/06 06:36:36;;;;;;;54.90;31.53;;;12.20;99.90;;;;;;5017915;28;20794;-78
2022/05/06 06:39:02;;;;;;;53.43;31.13;;;12.20;99.90;;;;;;5051073;28;20190;-78
2022/05/06 06:41:27;;;;;;;44.03;27.53;;;12.20;99.90;;;;;;5050966;28;20241;-78
2022/05/06 06:43:54;;;;;;;40.60;26.80;;;12.20;99.90;;;;;;5050963;28;20268;-78
2022/05/06 06:46:20;;;;;;;44.80;27.63;;;12.20;99.90;;;;;;5050662;28;20204;-77
2022/05/06 06:48:46;;;;;;;43.17;27.10;;;12.20;99.90;;;;;;5017659;28;20508;-77
2022/05/06 06:51:11;;;;;;;36.30;25.43;;;12.30;99.90;;;;;;5069183;28;20197;-78
2022/05/06 06:53:37;;;;;;;41.03;26.07;;;12.20;99.90;;;;;;5050521;28;20470;-78
2022/05/06 06:56:03;;;;;;;42.27;23.90;;;12.20;99.90;;;;;;5050204;28;20202;-78
2022/05/06 06:58:30;;;;;;;37.47;25.27;;;12.30;99.90;;;;;;5050636;28;20229;-78
2022/05/06 07:00:57;;;;;;;41.97;26.50;;;12.30;99.90;;;;;;5050316;28;20479;-78
2022/05/06 07:03:22;;;;;;;44.63;25.20;;;12.40;99.90;;;;;;5034214;28;20526;-78
2022/05/06 07:14:02;;;;;;;34.13;24.47;;;12.30;99.90;;;;;;5039053;28;20466;-78
2022/05/06 07:16:28;;;;;;;33.20;23.73;;;12.30;99.90;;;;;;5049919;28;20445;-79
2022/05/06 07:18:54;;;;;;;30.00;23.10;;;12.30;99.90;;;;;;5032820;28;20436;-80
2022/05/06 07:21:20;;;;;;;31.93;23.60;;;12.30;99.90;;;;;;5033497;28;20724;-77
2022/05/06 07:23:45;;;;;;;35.93;25.00;;;12.30;99.90;;;;;;5067921;28;20486;-77
2022/05/06 07:26:12;;;;;;;34.60;22.10;;;12.30;99.90;;;;;;5050365;28;20278;-77
2022/05/06 07:28:38;;;;;;;29.30;20.97;;;12.30;99.90;;;;;;5050615;28;20181;-76
2022/05/06 07:31:06;;;;;;;27.30;20.53;;;12.30;99.90;;;;;;5033549;28;20428;-79
2022/05/06 07:33:31;;;;;;;31.57;20.70;;;12.40;99.90;;;;;;5034856;28;20425;-76
2022/05/06 07:35:57;;;;;;;28.57;19.43;;;12.40;99.90;;;;;;5034616;28;20462;-76
2022/05/06 07:38:23;;;;;;;23.53;18.90;;;12.40;99.90;;;;;;5034748;28;20189;-77
2022/05/06 07:40:49;;;;;;;28.47;19.40;;;12.50;99.90;;;;;;5051731;28;20261;-76
2022/05/06 07:43:15;;;;;;;31.10;19.87;;;12.50;99.90;;;;;;5051819;28;20208;-77
2022/05/06 07:45:41;;;;;;;22.03;17.80;;;12.60;99.90;;;;;;5051353;28;20446;-77
2022/05/06 07:48:08;;;;;;;26.70;19.00;;;12.50;99.90;;;;;;5051575;28;20444;-76
2022/05/06 07:50:35;;;;;;;24.17;19.07;;;12.50;99.90;;;;;;5069288;28;20440;-77
2022/05/06 07:53:00;;;;;;;29.40;19.00;;;12.60;99.90;;;;;;5049970;28;21043;-76
2022/05/06 07:55:26;;;;;;;22.50;17.57;;;12.60;99.90;;;;;;5033700;28;20452;-76
2022/05/06 07:57:53;;;;;;;31.00;18.70;;;12.70;99.90;;;;;;5033423;28;20747;-77
2022/05/06 08:00:23;;;;;;;22.70;17.50;;;12.70;99.90;;;;;;5049946;28;20241;-77
2022/05/06 08:05:33;;;;;;;24.50;15.73;;;12.70;99.90;;;;;;5067654;28;20491;-77
2022/05/06 08:07:58;;;;;;;20.73;16.50;;;12.70;99.90;;;;;;5049350;28;20432;-77
2022/05/06 08:10:24;;;;;;;21.23;16.33;;;12.80;99.90;;;;;;5032609;28;20655;-76
2022/05/06 08:12:50;;;;;;;22.57;15.13;;;12.80;99.90;;;;;;5033042;28;20192;-76
2022/05/06 08:15:19;;;;;;;19.67;15.00;;;12.80;99.90;;;;;;5049482;28;20206;-76
2022/05/06 08:17:45;;;;;;;22.43;15.53;;;12.90;99.90;;;;;;5068063;28;20429;-75
2022/05/06 08:20:11;;;;;;;18.30;14.10;;;12.90;99.90;;;;;;5071961;28;20428;-75
2022/05/06 08:22:37;;;;;;;17.67;15.03;;;12.90;99.90;;;;;;5020519;28;20204;-76
2022/05/06 08:25:12;;;;;;;20.00;13.90;;;12.90;99.90;;;;;;5071473;28;20431;-76
2022/05/06 08:27:42;;;;;;;20.50;14.30;;;13.10;99.90;;;;;;5053453;28;20416;-76
2022/05/06 08:30:12;;;;;;;22.67;14.93;;;13.10;99.90;;;;;;5053366;28;20428;-76
2022/05/06 08:32:38;;;;;;;20.00;15.07;;;13.00;99.90;;;;;;5052992;28;20942;-76
2022/05/06 08:35:04;;;;;;;22.43;15.50;;;13.10;99.90;;;;;;5053910;28;20497;-76
2022/05/06 08:37:40;;;;;;;26.47;15.33;;;13.10;99.90;;;;;;5072467;28;20467;-76
2022/05/06 08:40:06;;;;;;;19.83;14.07;;;13.20;99.90;;;;;;5054799;28;21014;-76
2022/05/06 08:42:32;;;;;;;23.83;14.67;;;13.30;99.90;;;;;;5055743;28;20488;-75
2022/05/06 08:53:12;;;;;;;16.70;13.17;;;13.70;99.90;;;;;;5071063;28;21054;-75
2022/05/06 08:55:38;;;;;;;17.57;13.33;;;13.80;99.90;;;;;;5035360;28;20453;-76
2022/05/06 08:58:06;;;;;;;18.73;13.40;;;13.70;99.90;;;;;;5035567;28;21248;-76
2022/05/06 09:00:31;;;;;;;18.30;13.37;;;13.80;99.90;;;;;;5052333;28;20574;-76
2022/05/06 09:02:58;;;;;;;19.67;13.40;;;13.90;99.90;;;;;;5052774;28;20468;-76
2022/05/06 09:05:24;;;;;;;22.67;14.03;;;13.90;99.90;;;;;;5035923;28;20705;-75
2022/05/06 09:07:58;;;;;;;18.40;14.07;;;14.00;99.90;;;;;;5052380;28;20526;-76
2022/05/06 09:10:24;;;;;;;28.50;14.40;;;14.00;99.90;;;;;;5052507;28;20178;-76
2022/05/06 09:13:02;;;;;;;15.80;13.30;;;14.20;99.90;;;;;;5053263;28;20458;-76
2022/05/06 09:18:23;;;;;;;18.40;13.80;;;14.10;99.90;;;;;;5070950;28;20948;-76
2022/05/06 09:20:50;;;;;;;18.30;13.83;;;14.20;99.90;;;;;;5070659;28;20474;-76
2022/05/06 09:23:24;;;;;;;15.47;13.23;;;14.10;99.90;;;;;;5051553;28;20465;-75
2022/05/06 09:25:54;;;;;;;20.60;13.83;;;14.00;99.90;;;;;;5069466;28;21015;-75
2022/05/06 09:28:26;;;;;;;18.60;14.37;;;14.00;99.90;;;;;;5051635;28;20504;-75
2022/05/06 09:31:04;;;;;;;18.50;13.77;;;14.10;99.90;;;;;;5069532;28;20419;-75
2022/05/06 09:33:31;;;;;;;20.07;13.43;;;14.10;99.90;;;;;;5070014;28;20424;-75
2022/05/06 09:36:27;;;;;;;19.43;13.13;;;14.30;99.90;;;;;;5069831;28;20452;-76
2022/05/06 09:39:07;;;;;;;20.80;14.47;;;14.30;99.90;;;;;;5051296;28;20425;-76
2022/05/06 09:41:36;;;;;;;15.20;13.53;;;14.40;99.90;;;;;;5050923;28;20450;-76
2022/05/06 09:44:04;;;;;;;16.70;12.90;;;14.40;99.90;;;;;;5051000;28;20423;-75
2022/05/06 09:46:31;;;;;;;19.83;13.43;;;14.60;99.90;;;;;;5034275;28;20956;-76
2022/05/06 09:48:58;;;;;;;15.57;12.03;;;14.60;99.90;;;;;;5068976;28;20417;-76
2022/05/06 09:51:29;;;;;;;17.77;12.57;;;14.70;99.90;;;;;;5069495;28;20422;-76
2022/05/06 09:53:58;;;;;;;14.23;11.30;;;14.80;99.90;;;;;;5034515;28;20450;-76
2022/05/06 09:56:26;;;;;;;20.40;11.80;;;14.70;99.90;;;;;;5050870;28;20443;-75
2022/05/06 09:58:53;;;;;;;11.87;10.60;;;14.70;99.90;;;;;;5069101;28;20422;-76
2022/05/06 10:01:18;;;;;;;16.47;12.03;;;14.70;99.90;;;;;;5069181;28;20413;-76
2022/05/06 10:03:44;;;;;;;17.37;12.17;;;14.60;99.90;;;;;;5050853;28;20469;-77
2022/05/06 10:06:10;;;;;;;14.87;11.60;;;14.60;99.90;;;;;;5050672;28;20225;-76
2022/05/06 10:08:41;;;;;;;15.10;11.37;;;14.60;99.90;;;;;;5068620;28;20924;-76
2022/05/06 10:11:12;;;;;;;14.53;10.73;;;14.70;99.90;;;;;;5050517;28;20452;-75
2022/05/06 10:13:46;;;;;;;14.77;12.53;;;14.90;99.90;;;;;;5050614;28;20432;-75
2022/05/06 10:16:12;;;;;;;16.17;11.70;;;15.10;99.90;;;;;;5068830;28;20441;-77
2022/05/06 10:18:43;;;;;;;16.93;11.47;;;15.40;99.90;;;;;;5050580;28;20420;-79
2022/05/06 10:21:13;;;;;;;15.60;11.57;;;15.50;99.90;;;;;;5068956;28;20460;-77
2022/05/06 10:23:50;;;;;;;15.77;10.50;;;15.60;99.90;;;;;;5033583;28;20480;-78
2022/05/06 10:26:34;;;;;;;10.23;9.07;;;15.70;99.90;;;;;;5050582;28;20514;-78
2022/05/06 10:34:31;;;;;;;16.40;10.83;;;15.60;99.90;;;;;;5053592;28;20428;-77
2022/05/06 10:37:01;;;;;;;18.07;10.40;;;15.60;99.90;;;;;;5050314;28;20415;-80
2022/05/06 10:39:32;;;;;;;16.20;10.30;;;15.70;99.90;;;;;;5050179;28;20523;-75
2022/05/06 10:42:17;;;;;;;11.93;9.50;;;15.70;99.90;;;;;;5048955;28;20461;-78
2022/05/06 10:44:53;;;;;;;15.03;9.63;;;15.70;99.90;;;;;;5049738;28;20495;-78
2022/05/06 10:47:19;;;;;;;11.90;9.90;;;15.70;99.90;;;;;;5049670;28;20460;-78
2022/05/06 10:49:52;;;;;;;21.70;9.70;;;15.70;99.90;;;;;;5049796;28;20449;-78
2022/05/06 10:52:23;;;;;;;13.57;9.23;;;15.70;99.90;;;;;;5050598;28;20666;-78
2022/05/06 10:54:48;;;;;;;16.00;9.53;;;15.90;99.90;;;;;;5050201;28;20453;-78
2022/05/06 10:57:18;;;;;;;12.73;9.53;;;16.20;99.90;;;;;;5050544;28;20471;-77
2022/05/06 10:59:50;;;;;;;13.60;10.00;;;16.40;99.90;;;;;;5049942;28;20218;-78
2022/05/06 11:02:16;;;;;;;12.20;9.00;;;16.40;99.90;;;;;;5049615;28;20850;-78
2022/05/06 11:05:00;;;;;;;13.87;8.87;;;16.50;99.90;;;;;;5067435;28;20419;-78
2022/05/06 11:07:27;;;;;;;17.27;10.10;;;16.70;99.90;;;;;;5049889;28;20411;-77
2022/05/06 11:09:53;;;;;;;19.63;9.73;;;16.70;99.90;;;;;;5068238;28;20420;-78
2022/05/06 11:12:35;;;;;;;18.67;9.30;;;16.60;99.90;;;;;;5068772;28;20451;-78
2022/05/06 11:15:03;;;;;;;12.23;8.50;;;16.70;99.90;;;;;;5050032;28;20451;-78
2022/05/06 11:17:32;;;;;;;10.83;8.43;;;16.90;99.90;;;;;;5067831;28;20507;-79
2022/05/06 11:20:04;;;;;;;10.93;8.73;;;17.10;99.90;;;;;;5050549;28;20421;-79
2022/05/06 11:22:33;;;;;;;10.90;8.20;;;17.10;99.90;;;;;;5049261;28;20470;-79
2022/05/06 11:25:00;;;;;;;10.63;7.90;;;17.20;99.90;;;;;;5067342;28;20982;-80
2022/05/06 11:27:26;;;;;;;9.30;7.50;;;17.20;99.90;;;;;;5049409;28;20461;-81
2022/05/06 11:29:57;;;;;;;10.47;8.03;;;17.20;99.90;;;;;;5049365;28;20454;-78
2022/05/06 11:32:24;;;;;;;14.13;7.60;;;17.30;99.90;;;;;;5049547;28;20211;-80
2022/05/06 11:35:10;;;;;;;14.47;8.30;;;17.20;99.90;;;;;;5032542;28;20480;-79
2022/05/06 11:37:40;;;;;;;12.33;8.43;;;17.30;99.90;;;;;;5032750;28;20415;-79
2022/05/06 11:40:32;;;;;;;10.57;8.17;;;17.40;99.90;;;;;;5049185;28;20472;-80
2022/05/06 11:42:59;;;;;;;13.03;7.80;;;17.40;99.90;;;;;;5049234;28;20634;-79
2022/05/06 11:48:10;;;;;;;16.03;8.67;;;17.30;99.90;;;;;;5052539;28;20808;-79
2022/05/06 11:50:37;;;;;;;8.77;7.77;;;17.30;99.90;;;;;;5049331;28;20486;-79
2022/05/06 11:53:08;;;;;;;11.97;8.40;;;17.20;99.90;;;;;;5049243;28;20457;-79
2022/05/06 11:55:40;;;;;;;10.63;8.00;;;17.20;99.90;;;;;;5033251;28;20541;-79
2022/05/06 11:58:07;;;;;;;9.13;7.70;;;17.20;99.90;;;;;;5067352;28;20454;-79
2022/05/06 12:00:34;;;;;;;8.93;7.93;;;17.20;99.90;;;;;;5032778;28;20433;-80
2022/05/06 12:03:05;;;;;;;10.03;8.67;;;17.10;99.90;;;;;;5067127;28;20467;-79
2022/05/06 12:05:39;;;;;;;9.97;8.50;;;17.10;99.90;;;;;;5032491;28;20468;-79
2022/05/06 12:08:05;;;;;;;12.80;8.80;;;17.00;99.90;;;;;;5049118;28;20424;-79
2022/05/06 12:10:33;;;;;;;11.13;8.60;;;17.00;99.90;;;;;;5049017;28;20435;-80
2022/05/06 12:13:03;;;;;;;13.60;9.20;;;17.00;99.90;;;;;;5032031;28;20441;-79
2022/05/06 12:15:41;;;;;;;12.07;8.37;;;16.80;99.90;;;;;;5066441;28;20427;-79
2022/05/06 12:18:09;;;;;;;14.53;9.03;;;16.90;99.90;;;;;;5045040;28;20917;-79
2022/05/06 12:20:37;;;;;;;11.20;8.43;;;17.00;99.90;;;;;;5048723;28;20473;-80
2022/05/06 12:23:08;;;;;;;9.40;8.40;;;17.00;99.90;;;;;;5049386;28;20472;-80
2022/05/06 12:25:35;;;;;;;11.53;8.30;;;17.00;99.90;;;;;;5049153;28;20908;-78
2022/05/06 12:28:19;;;;;;;13.07;7.90;;;17.00;99.90;;;;;;5067072;28;20416;-79
2022/05/06 12:30:46;;;;;;;11.93;9.37;;;17.10;99.90;;;;;;5049276;28;20423;-80
2022/05/06 12:33:14;;;;;;;8.60;7.57;;;17.20;99.90;;;;;;5049587;28;20516;-79
2022/05/06 12:36:00;;;;;;;12.43;9.17;;;17.30;99.90;;;;;;5050123;28;20451;-81
2022/05/06 12:38:36;;;;;;;13.37;8.40;;;17.30;99.90;;;;;;5068034;28;20512;-79
2022/05/06 12:41:26;;;;;;;10.40;8.27;;;17.30;99.90;;;;;;5067359;28;20420;-80
2022/05/06 12:43:57;;;;;;;10.07;8.30;;;17.30;99.90;;;;;;5048779;28;20479;-77
2022/05/06 12:46:30;;;;;;;15.63;8.90;;;17.30;99.90;;;;;;5033192;28;20482;-79
2022/05/06 12:51:45;;;;;;;12.37;9.10;;;17.40;99.90;;;;;;5067835;28;20423;-79
2022/05/06 12:54:12;;;;;;;10.17;7.77;;;17.40;99.90;;;;;;5032397;28;20430;-79
2022/05/06 12:56:39;;;;;;;11.80;7.90;;;17.40;99.90;;;;;;5066439;28;20508;-79
2022/05/06 12:59:05;;;;;;;12.80;8.00;;;17.50;99.90;;;;;;5066800;28;20963;-79
2022/05/06 13:01:32;;;;;;;13.03;8.00;;;17.60;99.90;;;;;;5066374;28;20425;-78
2022/05/06 13:03:58;;;;;;;10.97;8.00;;;17.60;99.90;;;;;;5066926;28;20429;-78
2022/05/06 13:06:24;;;;;;;13.47;8.40;;;17.60;99.90;;;;;;5052533;28;20828;-77
2022/05/06 13:08:49;;;;;;;10.33;7.63;;;17.60;99.90;;;;;;5036233;28;20541;-79
2022/05/06 13:11:16;;;;;;;15.27;7.47;;;17.70;99.90;;;;;;5036088;28;20192;-78
2022/05/06 13:13:42;;;;;;;10.13;8.10;;;17.70;99.90;;;;;;5053196;28;20185;-78
2022/05/06 13:16:09;;;;;;;9.60;7.90;;;17.70;99.90;;;;;;5071430;28;20496;-79
2022/05/06 13:18:35;;;;;;;8.53;7.37;;;17.70;99.90;;;;;;5052756;28;20483;-80
2022/05/06 13:21:01;;;;;;;11.80;7.93;;;17.60;99.90;;;;;;5052523;28;21044;-80